Terminal Aerodrome Forecast
Issued by NWS Rapid City, SD

Home | Current Version | Previous Version | Graphics & Text | Print | Product List | Glossary On
Versions: 1 2 3 4 5 6 7 8 9 10 11 12 13 14 15 16 17 18 19
000
FTUS43 KUNR 251429 AAB
TAFRAP
TAF AMD
KRAP 251429Z 2514/2612 34012KT P6SM OVC008
     FM251800 36009KT P6SM VCSH BKN025
     FM260200 VRB05KT P6SM BKN020=

USA.gov is the U.S. government's official web portal to all federal, state and local government web resources and services.